Wetterdaten: Sonntag, 07.09.2014
Datum Zeit Temp. A. Feuchte A. Luftdruck Regen Wind Richtung Richtung Sonnenschein ET UV Solar Taupunkt Windchill Windben Empfang
07.09.2014 00:00 15,6 C 89 % 1011,5 hPa 0,0 l/m 0,0 km/h (0 Bft) O 96 0 min 0,000 mm 0,0 UV-I 0 W/m 13,8 C 15,6 C 0,0 km/h (0 Bft) 0,00 %
07.09.2014 00:15 15,5 C 89 % 1011,3 hPa 0,0 l/m 0,0 km/h (0 Bft) SO 142 0 min 0,000 mm 0,0 UV-I 0 W/m 13,7 C 15,5 C 0,0 km/h (0 Bft) 0,00 %
07.09.2014 00:30 15,6 C 90 % 1011,3 hPa 0,0 l/m 0,0 km/h (0 Bft) SO 142 0 min 0,000 mm 0,0 UV-I 0 W/m 14,0 C 15,6 C 0,0 km/h (0 Bft) 0,00 %
07.09.2014 00:45 15,4 C 89 % 1011,4 hPa 0,0 l/m 0,0 km/h (0 Bft) SO 136 0 min 0,000 mm 0,0 UV-I 0 W/m 13,6 C 15,4 C 0,0 km/h (0 Bft) 0,00 %
07.09.2014 01:00 15,4 C 91 % 1011,3 hPa 0,0 l/m 0,0 km/h (0 Bft) SO 136 0 min 0,000 mm 0,0 UV-I 0 W/m 13,9 C 15,4 C 0,0 km/h (0 Bft) 0,00 %
07.09.2014 01:15 15,0 C 92 % 1011,4 hPa 0,0 l/m 0,0 km/h (0 Bft) S 187 0 min 0,000 mm 0,0 UV-I 0 W/m 13,7 C 15,0 C 0,0 km/h (0 Bft) 0,00 %
07.09.2014 01:30 15,0 C 93 % 1011,4 hPa 0,0 l/m 0,0 km/h (0 Bft) S 183 0 min 0,000 mm 0,0 UV-I 0 W/m 13,9 C 15,0 C 0,0 km/h (0 Bft) 0,00 %
07.09.2014 01:45 15,0 C 93 % 1011,4 hPa 0,0 l/m 0,0 km/h (0 Bft) S 182 0 min 0,000 mm 0,0 UV-I 0 W/m 13,9 C 15,0 C 0,0 km/h (0 Bft) 0,00 %
07.09.2014 02:00 14,9 C 94 % 1011,4 hPa 0,0 l/m 0,0 km/h (0 Bft) S 183 0 min 0,000 mm 0,0 UV-I 0 W/m 13,9 C 14,9 C 0,0 km/h (0 Bft) 0,00 %
07.09.2014 02:15 14,9 C 94 % 1011,7 hPa 0,0 l/m 0,0 km/h (0 Bft) S 182 0 min 0,000 mm 0,0 UV-I 0 W/m 13,9 C 14,9 C 0,0 km/h (0 Bft) 0,00 %
07.09.2014 02:30 14,8 C 94 % 1011,6 hPa 0,0 l/m 0,0 km/h (0 Bft) S 182 0 min 0,000 mm 0,0 UV-I 0 W/m 13,8 C 14,8 C 0,0 km/h (0 Bft) 0,00 %
07.09.2014 02:45 14,8 C 94 % 1011,8 hPa 0,0 l/m 0,0 km/h (0 Bft) S 176 0 min 0,000 mm 0,0 UV-I 0 W/m 13,8 C 14,8 C 0,0 km/h (0 Bft) 0,00 %
07.09.2014 03:00 14,6 C 95 % 1011,8 hPa 0,0 l/m 0,0 km/h (0 Bft) S 176 0 min 0,000 mm 0,0 UV-I 0 W/m 13,8 C 14,6 C 0,0 km/h (0 Bft) 0,00 %
07.09.2014 03:15 14,6 C 95 % 1011,9 hPa 0,0 l/m 0,0 km/h (0 Bft) S 176 0 min 0,000 mm 0,0 UV-I 0 W/m 13,8 C 14,6 C 0,0 km/h (0 Bft) 0,00 %
07.09.2014 03:30 14,6 C 95 % 1011,9 hPa 0,0 l/m 0,0 km/h (0 Bft) S 176 0 min 0,000 mm 0,0 UV-I 0 W/m 13,8 C 14,6 C 0,0 km/h (0 Bft) 0,00 %
07.09.2014 03:45 14,6 C 95 % 1011,8 hPa 0,0 l/m 0,0 km/h (0 Bft) S 176 0 min 0,000 mm 0,0 UV-I 0 W/m 13,8 C 14,6 C 0,0 km/h (0 Bft) 0,00 %
07.09.2014 04:00 14,6 C 95 % 1011,8 hPa 0,0 l/m 0,0 km/h (0 Bft) W-SW 255 0 min 0,000 mm 0,0 UV-I 0 W/m 13,8 C 14,6 C 0,0 km/h (0 Bft) 0,00 %
07.09.2014 04:15 14,5 C 96 % 1011,7 hPa 0,0 l/m 0,0 km/h (0 Bft) W-SW 256 0 min 0,000 mm 0,0 UV-I 0 W/m 13,9 C 14,5 C 0,0 km/h (0 Bft) 0,00 %
07.09.2014 04:30 14,2 C 96 % 1011,8 hPa 0,0 l/m 0,0 km/h (0 Bft) SW 220 0 min 0,000 mm 0,0 UV-I 0 W/m 13,6 C 14,2 C 0,0 km/h (0 Bft) 0,00 %
07.09.2014 04:45 14,1 C 97 % 1011,7 hPa 0,0 l/m 0,0 km/h (0 Bft) S-SW 202 0 min 0,000 mm 0,0 UV-I 0 W/m 13,6 C 14,1 C 0,0 km/h (0 Bft) 0,00 %
07.09.2014 05:00 14,0 C 97 % 1011,7 hPa 0,0 l/m 0,0 km/h (0 Bft) W 273 0 min 0,000 mm 0,0 UV-I 0 W/m 13,5 C 14,0 C 0,0 km/h (0 Bft) 0,00 %
07.09.2014 05:15 13,9 C 97 % 1011,8 hPa 0,0 l/m 0,0 km/h (0 Bft) SW 224 0 min 0,000 mm 0,0 UV-I 0 W/m 13,4 C 13,9 C 0,0 km/h (0 Bft) 0,00 %
07.09.2014 05:30 13,8 C 97 % 1012,0 hPa 0,0 l/m 0,0 km/h (0 Bft) W-SW 249 0 min 0,000 mm 0,0 UV-I 0 W/m 13,3 C 13,8 C 0,0 km/h (0 Bft) 0,00 %
07.09.2014 05:45 13,8 C 97 % 1012,1 hPa 0,0 l/m 0,0 km/h (0 Bft) SO 124 0 min 0,000 mm 0,0 UV-I 0 W/m 13,3 C 13,8 C 0,0 km/h (0 Bft) 0,00 %
07.09.2014 06:00 13,9 C 97 % 1012,1 hPa 0,0 l/m 0,0 km/h (0 Bft) SO 124 0 min 0,000 mm 0,0 UV-I 0 W/m 13,4 C 13,9 C 0,0 km/h (0 Bft) 0,00 %
07.09.2014 06:15 14,0 C 97 % 1011,9 hPa 0,0 l/m 0,0 km/h (0 Bft) S 175 0 min 0,000 mm 0,0 UV-I 0 W/m 13,5 C 14,0 C 0,0 km/h (0 Bft) 0,00 %
07.09.2014 06:30 13,9 C 97 % 1012,2 hPa 0,0 l/m 0,0 km/h (0 Bft) S-SO 150 0 min 0,000 mm 0,0 UV-I 0 W/m 13,4 C 13,9 C 4,0 km/h (1 Bft) 0,00 %
07.09.2014 06:45 13,8 C 97 % 1012,4 hPa 0,0 l/m 0,0 km/h (0 Bft) SO 136 0 min 0,000 mm 1,0 UV-I 1 W/m 13,3 C 13,8 C 0,0 km/h (0 Bft) 0,00 %
07.09.2014 07:00 13,8 C 97 % 1012,5 hPa 0,0 l/m 0,0 km/h (0 Bft) SO 138 0 min 0,000 mm 1,0 UV-I 26 W/m 13,3 C 13,8 C 0,0 km/h (0 Bft) 0,00 %
07.09.2014 07:15 14,0 C 97 % 1012,6 hPa 0,0 l/m 0,4 km/h (0 Bft) S 174 0 min 0,000 mm 1,0 UV-I 40 W/m 13,5 C 14,0 C 0,0 km/h (0 Bft) 0,00 %
07.09.2014 07:30 14,3 C 98 % 1012,7 hPa 0,0 l/m 0,0 km/h (0 Bft) SW 235 0 min 0,000 mm 1,0 UV-I 66 W/m 14,0 C 14,3 C 0,0 km/h (0 Bft) 0,00 %
07.09.2014 07:45 14,3 C 97 % 1012,7 hPa 0,0 l/m 0,0 km/h (0 Bft) O-SO 122 0 min 0,000 mm 2,0 UV-I 79 W/m 13,8 C 14,3 C 0,0 km/h (0 Bft) 0,00 %
07.09.2014 08:00 14,5 C 97 % 1012,7 hPa 0,0 l/m 0,0 km/h (0 Bft) SW 234 0 min 0,000 mm 2,0 UV-I 101 W/m 14,0 C 14,5 C 0,0 km/h (0 Bft) 0,00 %
07.09.2014 08:15 14,7 C 95 % 1012,6 hPa 0,0 l/m 0,0 km/h (0 Bft) S-SW 197 0 min 0,000 mm 2,0 UV-I 120 W/m 13,9 C 14,7 C 4,0 km/h (1 Bft) 0,00 %
07.09.2014 08:30 15,5 C 91 % 1012,8 hPa 0,0 l/m 0,0 km/h (0 Bft) W-SW 256 0 min 0,000 mm 3,0 UV-I 135 W/m 14,0 C 15,5 C 0,0 km/h (0 Bft) 0,00 %
07.09.2014 08:45 16,0 C 85 % 1012,8 hPa 0,0 l/m 0,0 km/h (0 Bft) S-SW 206 0 min 0,000 mm 4,0 UV-I 165 W/m 13,5 C 16,0 C 4,0 km/h (1 Bft) 0,00 %
07.09.2014 09:00 15,9 C 85 % 1012,6 hPa 0,0 l/m 0,4 km/h (0 Bft) W-NW 303 0 min 0,000 mm 4,0 UV-I 210 W/m 13,4 C 15,9 C 0,0 km/h (0 Bft) 0,00 %
07.09.2014 09:15 17,2 C 79 % 1012,5 hPa 0,0 l/m 0,0 km/h (0 Bft) S-SW 208 15 min 0,000 mm 4,0 UV-I 309 W/m 13,5 C 17,2 C 0,0 km/h (0 Bft) 0,00 %
07.09.2014 09:30 18,6 C 76 % 1012,2 hPa 0,0 l/m 2,9 km/h (1 Bft) NO 51 15 min 0,000 mm 4,0 UV-I 358 W/m 14,3 C 18,6 C 0,0 km/h (0 Bft) 0,00 %
07.09.2014 09:45 19,7 C 72 % 1012,2 hPa 0,0 l/m 0,0 km/h (0 Bft) W-SW 256 15 min 0,000 mm 4,0 UV-I 550 W/m 14,5 C 19,7 C 0,0 km/h (0 Bft) 0,00 %
07.09.2014 10:00 20,0 C 65 % 1012,2 hPa 0,0 l/m 0,0 km/h (0 Bft) NO 47 15 min 0,000 mm 4,0 UV-I 374 W/m 13,2 C 20,0 C 0,0 km/h (0 Bft) 0,00 %
07.09.2014 10:15 20,6 C 65 % 1012,1 hPa 0,0 l/m 0,0 km/h (0 Bft) W 272 15 min 0,000 mm 5,0 UV-I 362 W/m 13,8 C 20,6 C 0,0 km/h (0 Bft) 0,00 %
07.09.2014 10:30 19,8 C 68 % 1012,4 hPa 0,0 l/m 0,0 km/h (0 Bft) NO 50 0 min 0,000 mm 7,0 UV-I 323 W/m 13,7 C 19,8 C 0,0 km/h (0 Bft) 0,00 %
07.09.2014 10:45 21,6 C 65 % 1012,4 hPa 0,0 l/m 0,0 km/h (0 Bft) O-SO 109 0 min 0,000 mm 5,0 UV-I 317 W/m 14,7 C 21,6 C 0,0 km/h (0 Bft) 0,00 %
07.09.2014 11:00 21,3 C 63 % 1012,1 hPa 0,0 l/m 0,0 km/h (0 Bft) W-SW 256 15 min 0,000 mm 5,0 UV-I 395 W/m 14,0 C 21,3 C 4,0 km/h (1 Bft) 0,00 %
07.09.2014 11:15 23,4 C 58 % 1011,7 hPa 0,0 l/m 0,0 km/h (0 Bft) W-SW 256 15 min 0,000 mm 6,0 UV-I 578 W/m 14,7 C 23,4 C 0,0 km/h (0 Bft) 0,00 %
07.09.2014 11:30 23,9 C 59 % 1011,6 hPa 0,0 l/m 0,0 km/h (0 Bft) SO 129 15 min 0,000 mm 7,0 UV-I 566 W/m 15,4 C 23,9 C 0,0 km/h (0 Bft) 0,00 %
07.09.2014 11:45 22,4 C 59 % 1011,8 hPa 0,0 l/m 0,4 km/h (0 Bft) O 85 15 min 0,000 mm 6,0 UV-I 415 W/m 14,0 C 22,4 C 0,0 km/h (0 Bft) 0,00 %
07.09.2014 12:00 22,1 C 66 % 1011,8 hPa 0,0 l/m 0,0 km/h (0 Bft) O 99 15 min 0,000 mm 7,0 UV-I 570 W/m 15,4 C 22,1 C 0,0 km/h (0 Bft) 0,00 %
07.09.2014 12:15 23,7 C 54 % 1010,7 hPa 0,0 l/m 0,0 km/h (0 Bft) O 79 15 min 0,000 mm 7,0 UV-I 458 W/m 13,8 C 23,7 C 4,0 km/h (1 Bft) 0,00 %
07.09.2014 12:30 21,6 C 64 % 1010,8 hPa 0,0 l/m 0,0 km/h (0 Bft) W-NW 302 15 min 0,000 mm 6,0 UV-I 515 W/m 14,5 C 21,6 C 4,0 km/h (1 Bft) 0,00 %
07.09.2014 12:45 24,6 C 60 % 1010,3 hPa 0,0 l/m 0,0 km/h (0 Bft) N-NO 32 15 min 0,000 mm 7,0 UV-I 550 W/m 16,3 C 24,6 C 4,0 km/h (1 Bft) 0,00 %
07.09.2014 13:00 24,9 C 54 % 1009,9 hPa 0,0 l/m 0,4 km/h (0 Bft) NW 326 15 min 0,000 mm 4,0 UV-I 658 W/m 14,9 C 24,9 C 7,9 km/h (2 Bft) 0,00 %
07.09.2014 13:15 25,1 C 47 % 1009,8 hPa 0,0 l/m 2,2 km/h (1 Bft) N-NO 29 15 min 0,000 mm 5,0 UV-I 705 W/m 13,0 C 25,1 C 4,0 km/h (1 Bft) 0,00 %
07.09.2014 13:30 26,5 C 52 % 1009,7 hPa 0,0 l/m 0,7 km/h (0 Bft) N 351 15 min 0,000 mm 6,0 UV-I 709 W/m 15,8 C 26,5 C 0,0 km/h (0 Bft) 0,00 %
07.09.2014 13:45 25,8 C 49 % 1010,1 hPa 0,0 l/m 4,3 km/h (1 Bft) SO 124 15 min 0,000 mm 6,0 UV-I 701 W/m 14,3 C 25,8 C 0,0 km/h (0 Bft) 0,00 %
07.09.2014 14:00 25,8 C 50 % 1009,5 hPa 0,0 l/m 2,9 km/h (1 Bft) NW 316 15 min 0,000 mm 4,0 UV-I 761 W/m 14,6 C 25,8 C 4,0 km/h (1 Bft) 0,00 %
07.09.2014 14:15 28,7 C 43 % 1008,7 hPa 0,0 l/m 0,0 km/h (0 Bft) O 95 15 min 0,000 mm 3,0 UV-I 785 W/m 14,9 C 28,7 C 4,0 km/h (1 Bft) 0,00 %
07.09.2014 14:30 24,3 C 49 % 1009,3 hPa 0,0 l/m 0,0 km/h (0 Bft) O 87 15 min 0,000 mm 3,0 UV-I 819 W/m 12,9 C 24,3 C 4,0 km/h (1 Bft) 0,00 %
07.09.2014 14:45 27,7 C 48 % 1008,8 hPa 0,0 l/m 2,2 km/h (1 Bft) O-NO 61 15 min 0,000 mm 3,0 UV-I 810 W/m 15,7 C 27,7 C 0,0 km/h (0 Bft) 0,00 %
07.09.2014 15:00 26,0 C 51 % 1008,9 hPa 0,0 l/m 1,8 km/h (1 Bft) SO 124 15 min 0,000 mm 3,0 UV-I 543 W/m 15,1 C 26,0 C 0,0 km/h (0 Bft) 0,00 %
07.09.2014 15:15 24,9 C 52 % 1008,7 hPa 0,0 l/m 2,2 km/h (1 Bft) O-NO 75 15 min 0,000 mm 2,0 UV-I 752 W/m 14,4 C 24,9 C 0,0 km/h (0 Bft) 0,00 %
07.09.2014 15:30 27,5 C 42 % 1008,2 hPa 0,0 l/m 0,0 km/h (0 Bft) O-NO 62 15 min 0,000 mm 2,0 UV-I 745 W/m 13,4 C 27,5 C 7,9 km/h (2 Bft) 0,00 %
07.09.2014 15:45 25,7 C 50 % 1008,6 hPa 0,0 l/m 0,0 km/h (0 Bft) O-NO 73 15 min 0,000 mm 2,0 UV-I 766 W/m 14,5 C 25,7 C 0,0 km/h (0 Bft) 0,00 %
07.09.2014 16:00 24,3 C 50 % 1008,6 hPa 0,0 l/m 0,0 km/h (0 Bft) SO 133 15 min 0,000 mm 2,0 UV-I 715 W/m 13,2 C 24,3 C 0,0 km/h (0 Bft) 0,00 %
07.09.2014 16:15 25,0 C 53 % 1008,5 hPa 0,0 l/m 6,8 km/h (2 Bft) N-NW 337 15 min 0,000 mm 2,0 UV-I 711 W/m 14,7 C 24,9 C 0,0 km/h (0 Bft) 0,00 %
07.09.2014 16:30 24,1 C 51 % 1008,7 hPa 0,0 l/m 0,0 km/h (0 Bft) NO 56 15 min 0,000 mm 2,0 UV-I 701 W/m 13,3 C 24,1 C 0,0 km/h (0 Bft) 0,00 %
07.09.2014 16:45 26,9 C 43 % 1008,2 hPa 0,0 l/m 0,0 km/h (0 Bft) N-NW 336 15 min 0,000 mm 2,0 UV-I 640 W/m 13,2 C 26,9 C 0,0 km/h (0 Bft) 0,00 %
07.09.2014 17:00 28,9 C 41 % 1007,7 hPa 0,0 l/m 0,0 km/h (0 Bft) S-SW 207 15 min 0,000 mm 1,0 UV-I 665 W/m 14,3 C 28,9 C 0,0 km/h (0 Bft) 0,00 %
07.09.2014 17:15 22,6 C 51 % 1009,1 hPa 0,0 l/m 0,0 km/h (0 Bft) O-NO 68 15 min 0,000 mm 1,0 UV-I 511 W/m 11,9 C 22,6 C 0,0 km/h (0 Bft) 0,00 %
07.09.2014 17:30 21,8 C 50 % 1009,2 hPa 0,0 l/m 0,0 km/h (0 Bft) O-NO 72 15 min 0,000 mm 1,0 UV-I 465 W/m 10,9 C 21,8 C 0,0 km/h (0 Bft) 0,00 %
07.09.2014 17:45 23,0 C 45 % 1009,1 hPa 0,0 l/m 0,0 km/h (0 Bft) O-NO 63 15 min 0,000 mm 1,0 UV-I 397 W/m 10,4 C 23,0 C 0,0 km/h (0 Bft) 0,00 %
07.09.2014 18:00 24,8 C 46 % 1009,2 hPa 0,0 l/m 0,0 km/h (0 Bft) NO 40 15 min 0,000 mm 0,0 UV-I 446 W/m 12,4 C 24,8 C 0,0 km/h (0 Bft) 0,00 %
07.09.2014 18:15 23,7 C 47 % 1009,5 hPa 0,0 l/m 0,0 km/h (0 Bft) O-NO 66 15 min 0,000 mm 0,0 UV-I 279 W/m 11,7 C 23,7 C 0,0 km/h (0 Bft) 0,00 %
07.09.2014 18:30 24,0 C 53 % 1009,5 hPa 0,0 l/m 0,0 km/h (0 Bft) O 82 15 min 0,000 mm 0,0 UV-I 162 W/m 13,8 C 24,0 C 0,0 km/h (0 Bft) 0,00 %
07.09.2014 18:45 23,1 C 60 % 1010,0 hPa 0,0 l/m 0,0 km/h (0 Bft) O-NO 67 15 min 0,000 mm 0,0 UV-I 104 W/m 14,9 C 23,1 C 4,0 km/h (1 Bft) 0,00 %
07.09.2014 19:00 23,2 C 60 % 1009,9 hPa 0,0 l/m 0,0 km/h (0 Bft) O 85 15 min 0,000 mm 0,0 UV-I 90 W/m 15,0 C 23,2 C 7,9 km/h (2 Bft) 0,00 %
07.09.2014 19:15 22,4 C 67 % 1010,3 hPa 0,0 l/m 0,0 km/h (0 Bft) O-NO 76 15 min 0,000 mm 0,0 UV-I 22 W/m 16,0 C 22,4 C 4,0 km/h (1 Bft) 0,00 %
07.09.2014 19:30 20,9 C 70 % 1010,8 hPa 0,0 l/m 2,9 km/h (1 Bft) O-SO 122 0 min 0,000 mm 0,0 UV-I 3 W/m 15,2 C 20,9 C 4,0 km/h (1 Bft) 0,00 %
07.09.2014 19:45 20,5 C 69 % 1011,0 hPa 0,0 l/m 4,0 km/h (1 Bft) O-NO 76 0 min 0,000 mm 0,0 UV-I 0 W/m 14,6 C 20,5 C 7,9 km/h (2 Bft) 0,00 %
07.09.2014 20:00 20,5 C 70 % 1011,1 hPa 0,0 l/m 2,9 km/h (1 Bft) O 99 0 min 0,000 mm 0,0 UV-I 0 W/m 14,8 C 20,5 C 7,9 km/h (2 Bft) 0,00 %
07.09.2014 20:15 20,3 C 70 % 1011,2 hPa 0,0 l/m 3,2 km/h (1 Bft) O-NO 67 0 min 0,000 mm 0,0 UV-I 0 W/m 14,6 C 20,3 C 7,9 km/h (2 Bft) 0,00 %
07.09.2014 20:30 19,9 C 69 % 1011,3 hPa 0,0 l/m 4,3 km/h (1 Bft) O-NO 74 0 min 0,000 mm 0,0 UV-I 0 W/m 14,0 C 19,9 C 7,9 km/h (2 Bft) 0,00 %
07.09.2014 20:45 19,5 C 71 % 1011,6 hPa 0,0 l/m 4,3 km/h (1 Bft) O 82 0 min 0,000 mm 0,0 UV-I 0 W/m 14,1 C 19,5 C 0,0 km/h (0 Bft) 0,00 %
07.09.2014 21:00 19,2 C 71 % 1011,8 hPa 0,0 l/m 4,3 km/h (1 Bft) S 185 0 min 0,000 mm 0,0 UV-I 0 W/m 13,8 C 19,2 C 4,0 km/h (1 Bft) 0,00 %
07.09.2014 21:15 19,1 C 72 % 1011,9 hPa 0,0 l/m 4,3 km/h (1 Bft) S-SW 210 0 min 0,000 mm 0,0 UV-I 0 W/m 13,9 C 19,1 C 0,0 km/h (0 Bft) 0,00 %
07.09.2014 21:30 18,6 C 74 % 1011,9 hPa 0,0 l/m 0,0 km/h (0 Bft) SO 136 0 min 0,000 mm 0,0 UV-I 0 W/m 13,9 C 18,6 C 0,0 km/h (0 Bft) 0,00 %
07.09.2014 21:45 17,6 C 80 % 1012,3 hPa 0,0 l/m 1,8 km/h (1 Bft) N 350 0 min 0,000 mm 0,0 UV-I 0 W/m 14,1 C 17,6 C 0,0 km/h (0 Bft) 0,00 %
07.09.2014 22:00 17,2 C 80 % 1012,4 hPa 0,0 l/m 0,0 km/h (0 Bft) SW 231 0 min 0,000 mm 0,0 UV-I 0 W/m 13,7 C 17,2 C 0,0 km/h (0 Bft) 0,00 %
07.09.2014 22:15 16,8 C 82 % 1012,6 hPa 0,0 l/m 0,0 km/h (0 Bft) S 190 0 min 0,000 mm 0,0 UV-I 0 W/m 13,7 C 16,8 C 0,0 km/h (0 Bft) 0,00 %
07.09.2014 22:30 17,1 C 79 % 1012,3 hPa 0,0 l/m 0,0 km/h (0 Bft) O-SO 115 0 min 0,000 mm 0,0 UV-I 0 W/m 13,4 C 17,1 C 0,0 km/h (0 Bft) 0,00 %
07.09.2014 22:45 16,0 C 89 % 1012,6 hPa 0,0 l/m 0,0 km/h (0 Bft) S-SO 157 0 min 0,000 mm 0,0 UV-I 0 W/m 14,2 C 16,0 C 0,0 km/h (0 Bft) 0,00 %
07.09.2014 23:00 15,4 C 91 % 1012,8 hPa 0,0 l/m 0,0 km/h (0 Bft) S-SO 157 0 min 0,000 mm 0,0 UV-I 0 W/m 13,9 C 15,4 C 0,0 km/h (0 Bft) 0,00 %
07.09.2014 23:15 15,6 C 87 % 1012,7 hPa 0,0 l/m 0,0 km/h (0 Bft) SO 127 0 min 0,000 mm 0,0 UV-I 0 W/m 13,4 C 15,6 C 0,0 km/h (0 Bft) 0,00 %
07.09.2014 23:30 15,4 C 91 % 1012,9 hPa 0,0 l/m 0,0 km/h (0 Bft) SO 142 0 min 0,000 mm 0,0 UV-I 0 W/m 13,9 C 15,4 C 0,0 km/h (0 Bft) 0,00 %
07.09.2014 23:45 15,3 C 90 % 1012,8 hPa 0,0 l/m 0,0 km/h (0 Bft) SO 142 0 min 0,000 mm 0,0 UV-I 0 W/m 13,7 C 15,3 C 0,0 km/h (0 Bft) 0,00 %
_ Min-Zeit 05:30 17:00 17:00 - 00:00 - - - - - - 17:45 05:30 00:00 00:00
Minimum _ 13,8 C 41 % 1007,7 hPa - 0,0 km/h (0 Bft) - - - - - - 10,4 C 13,8 C 0,0 km/h (0 Bft) 0,00 %
_ Max-Zeit 17:00 07:30 23:30 00:00 16:15 - - 09:15 00:00 10:30 14:30 12:45 17:00 13:00 00:00
Maximum _ 28,9 C 98 % 1012,9 hPa 0,0 l/m 6,8 km/h
N-NW (2 Bft)
- - 15 min 0,000 mm 7,0 UV-I 819 W/m 16,3 C 28,9 C 7,9 km/h
NW (2 Bft)
0,00 %
Durchschnitt _ 19,2 C 75 % 1011,2 hPa #0,0 l/m 0,6 km/h (0 Bft) O-NO - #9:45 h #0,000 mm 3,6 UV-I 428 W/m 13,9 C 19,2 C 1,2 km/h (1 Bft) 0,00 %